Poplar Municipal (PO1)
Poplar, MT
Field Elevation: 2037
Lat: 48°08.07N  Long: 105°09.73W
CTAF/Unicom Freq: 122.8000
   
    
Weather Advisories
2020-04-06   03:02 Z
Altimeter 29.74" Hg
Wind 080° @ 15 KT
Gusts 19 KT
Visibility 10 SM
Temperature 3° C (37° F)
Dewpoint -1° C (30° F)
Relative Humidity 73%
Density Altitude --
Condensation Altitude 4,000 feet
Wind Chill: -2° C (28° F)
Wind and Runways
Indicated Runway = 09
Headwind = 15 kt
Crosswind = 3 kt
History
 
 
 
More Info
All DigiWx sites map
NOAA Forecast
 
Airport IQ 5010
(M46) Colstrip, MT
(6S5) Ravalli County
 
about DigiWx
 
FAA Disclaimer: The data displayed is for advisory purposes only and is not to be used for flight planning or operations. For official data, please call (not available) to hear the current automated AWOS voice message.
  METAR PO1 060302Z AUTO 08015G19KT 10 SM 03/M01 A2974